Flight Track Log - Related Links

Times and Time Zones

All times are in EDT time to prevent confusion due to time zone crossing. See the JZA7939 flight status page for this flight to view local times or setup timezone preferences in your user account.

Time Position Orientation Groundspeed Altitude Reporting Facility
EDT Latitude Longitude Course Direction KTS MPH feet Rate Location/Type
Sun 07:02:29 PM 43.6667 -79.6333 270° West 30 35 500  Level Toronto Center
Sun 07:04:29 PM 43.6667 -79.6333 216° Southwest 20 23 500  Level Toronto Center
Sun 07:06:29 PM 43.6667 -79.6333 216° Southwest 10 12 500  Level Toronto Center
Sun 07:09:29 PM 43.6667 -79.6500 270° West 10 12 500 400 Level Toronto Center
Sun 07:11:29 PM 43.7167 -79.5833 44° Northeast 200 230 2,500 1,367 Climbing Toronto Center
Sun 07:12:29 PM 43.7667 -79.5167 44° Northeast 250 288 4,600 2,300 Climbing Toronto Center
Sun 07:13:29 PM 43.8167 -79.5667 324° Northwest 230 265 7,100 2,150 Climbing Toronto Center
Sun 07:14:29 PM 43.8167 -79.6833 270° West 250 288 8,900 2,000 Climbing Toronto Center
Sun 07:15:29 PM 43.8000 -79.7667 255° West 250 288 11,100 2,150 Climbing Toronto Center
Sun 07:16:29 PM 43.8000 -79.8667 270° West 260 299 13,200 1,800 Climbing Toronto Center
Sun 07:17:29 PM 43.7833 -79.9833 259° West 280 322 14,700 1,600 Climbing Toronto Center
Sun 07:18:29 PM 43.7833 -80.1000 270° West 290 334 16,400 1,700 Climbing Toronto Center
Sun 07:19:29 PM 43.7667 -80.1833 255° West 290 334 18,100 1,550 Climbing Toronto Center
Sun 07:20:29 PM 43.7667 -80.3000 270° West 300 345 19,500 1,250 Climbing Toronto Center
Sun 07:21:29 PM 43.7500 -80.4167 259° West 300 345 20,600 1,200 Climbing Toronto Center
Sun 07:22:29 PM 43.7333 -80.5500 260° West 310 357 21,900 1,300 Climbing Toronto Center
Sun 07:23:29 PM 43.7333 -80.6667 270° West 320 368 23,200 1,100 Climbing Toronto Center
Sun 07:24:29 PM 43.7167 -80.7833 259° West 320 368 24,100 1,000 Climbing Toronto Center
Sun 07:25:29 PM 43.7000 -80.9167 260° West 330 380 25,200 1,000 Climbing Toronto Center
Sun 07:26:29 PM 43.6833 -81.0333 259° West 330 380 26,100 850 Climbing Toronto Center
Sun 07:27:29 PM 43.6833 -81.1833 270° West 330 380 26,900 750 Climbing Toronto Center
Sun 07:28:29 PM 43.6667 -81.3000 259° West 340 391 27,600 700 Climbing Toronto Center
Sun 07:29:29 PM 43.6667 -81.4333 270° West 340 391 28,300 550 Climbing Toronto Center
Sun 07:30:29 PM 43.6500 -81.5667 260° West 340 391 28,700 600 Climbing Toronto Center
Sun 07:31:29 PM 43.6333 -81.7000 260° West 350 403 29,500 650 Climbing Toronto Center
Sun 07:32:29 PM 43.6333 -81.8167 270° West 350 403 30,000 500 Climbing Toronto Center
Sun 07:33:29 PM 43.6000 -81.9833 255° West 360 414 30,500 500 Climbing Toronto Center
Sun 07:34:29 PM 43.6000 -82.1000 270° West 360 414 31,000 500 Climbing Toronto Center
Sun 07:35:29 PM 43.5833 -82.2333 260° West 360 414 31,500 400 Climbing Toronto Center
Sun 07:36:29 PM 43.5667 -82.3667 260° West 360 414 31,800 250 Climbing Toronto Center
Sun 07:37:29 PM 43.5667 -82.5167 270° West 370 426 32,000 600 Climbing Toronto Center
Sun 07:38:29 PM 43.5333 -82.6667 253° West 360 414 33,000 800 Climbing Toronto Center
Sun 07:39:29 PM 43.5333 -82.7833 270° West 350 403 33,600 593 Climbing Toronto Center
Sun 07:40:00 PM 43.5361 -82.8647 273° West 351 404 33,900 258 Climbing Cleveland Center
Sun 07:41:02 PM 43.5225 -82.9944 262° West 346 398 34,000 48 Climbing Cleveland Center
Sun 07:42:04 PM 43.5086 -83.1286 262° West 353 406 34,000  Level Cleveland Center
Sun 07:43:06 PM 43.4947 -83.2631 262° West 357 411 34,000  Level Cleveland Center
Sun 07:44:08 PM 43.4808 -83.4006 262° West 363 418 34,000  Level Cleveland Center
Sun 07:45:10 PM 43.4636 -83.5681 262° West 370 426 34,000  Level Cleveland Center
Sun 07:46:12 PM 43.4481 -83.7081 261° West 372 428 34,000  Level Cleveland Center
Sun 07:47:14 PM 43.4322 -83.8494 261° West 375 432 34,000  Level Cleveland Center
Sun 07:48:16 PM 43.4156 -84.0011 261° West 379 436 34,000  Level Cleveland Center
Sun 07:49:18 PM 43.3992 -84.1464 261° West 385 443 34,000  Level Cleveland Center
Sun 07:50:20 PM 43.3833 -84.2911 261° West 385 443 34,000  Level Cleveland Center
Sun 07:51:26 PM 43.3631 -84.4675 261° West 388 447 34,000  Level Chicago Center
Sun 07:52:28 PM 43.3453 -84.6139 261° West 390 449 34,000  Level Chicago Center
Sun 07:53:30 PM 43.3292 -84.7611 261° West 390 449 34,000  Level Chicago Center
Sun 07:54:32 PM 43.3117 -84.9081 261° West 392 451 34,000  Level Chicago Center
Sun 07:55:34 PM 43.2936 -85.0547 260° West 393 452 34,000  Level Chicago Center
Sun 07:56:37 PM 43.2719 -85.2306 260° West 391 450 34,000 -432 Level Chicago Center
Sun 07:57:39 PM 43.2536 -85.3786 260° West 394 453 33,100 -823 Descending Chicago Center
Sun 07:58:41 PM 43.2356 -85.5256 260° West 395 455 32,300 -1,016 Descending Chicago Center
Sun 07:59:43 PM 43.2186 -85.6592 260° West 365 420 31,000 -1,113 Descending Chicago Center
Sun 08:00:45 PM 43.2036 -85.7811 260° West 334 384 30,000 -968 Descending Chicago Center
Sun 08:01:47 PM 43.1861 -85.9192 260° West 312 359 29,000 -1,161 Descending Chicago Center
Sun 08:02:49 PM 43.1714 -86.0303 260° West 304 350 27,600 -1,452 Descending Chicago Center
Sun 08:03:51 PM 43.1689 -86.1456 268° West 312 359 26,000 -1,548 Descending Chicago Center
Sun 08:04:53 PM 43.1664 -86.2697 268° West 322 371 24,400 -968 Descending Chicago Center
Sun 08:05:55 PM 43.1642 -86.4261 269° West 342 394 24,000 -672 Descending Chicago Center
Sun 08:06:58 PM 43.1617 -86.5528 268° West 337 388 23,000 -1,776 Descending Chicago Center
Sun 08:08:00 PM 43.1592 -86.6808 269° West 337 388 20,300 -2,661 Descending Chicago Center
Sun 08:09:02 PM 43.1564 -86.8089 268° West 339 390 17,500 -2,371 Descending Chicago Center
Sun 08:10:04 PM 43.1539 -86.9333 268° West 331 381 15,400 -1,887 Descending Chicago Center
Sun 08:11:06 PM 43.1486 -87.0433 266° West 295 339 13,600 -1,935 Descending Chicago Center
Sun 08:12:08 PM 43.1200 -87.1617 252° West 275 316 11,400 -1,935 Descending Chicago Center
Sun 08:13:10 PM 43.0983 -87.2561 253° West 264 304 9,600 -1,645 Descending Chicago Center
Sun 08:14:12 PM 43.0750 -87.3503 251° West 264 304 8,000 -1,694 Descending Chicago Center
Sun 08:15:14 PM 43.0492 -87.4553 251° West 259 298 6,100 -1,597 Descending Chicago Center
Sun 08:16:16 PM 43.0269 -87.5483 252° West 259 298 4,700 -968 Descending Chicago Center
Sun 08:17:18 PM 43.0072 -87.6275 251° West 230 265 4,100 -672 Descending Chicago Center
Sun 08:18:21 PM 42.9911 -87.6933 252° West 194 223 3,300 -768 Descending Chicago Center
Sun 08:19:23 PM 42.9783 -87.7506 253° West 173 199 2,500 -629 Descending Chicago Center
Sun 08:20:25 PM 42.9656 -87.8022 251° West 159 183 2,000 -484 Descending Chicago Center
Sun 08:21:27 PM 42.9536 -87.8492 251° West 145 167 1,500 -295 Descending Chicago Center
Sun 08:23:00 PM 42.9333 -87.8833 236° Southwest  Level FlightAware Approximate
Sun 08:24:49 PM 42.9500 -87.8667 236° Southwest 17 20 700  Level KMKE

Login

Don't have an account? Register now (free) for customized features, flight alerts, and more!